Time;durP1;ratioP1;P1;durP2;ratioP2;P2;SDS_P1;SDS_P2;PMS_P1;PMS_P2;Temp;Humidity;BMP_temperature;BMP_pressure;BME280_temperature;BME280_humidity;BME280_pressure;Samples;Min_cycle;Max_cycle;Signal;HPM_P1;HPM_P2
2021/11/13 00:00:51;;;;;;;3.65;3.35;;;;;;;;;;5032573;28;20208;-50
2021/11/13 00:03:17;;;;;;;4.00;3.60;;;;;;;;;;5032339;28;20282;-50
2021/11/13 00:05:43;;;;;;;3.47;3.17;;;;;;;;;;5033074;28;20215;-50
2021/11/13 00:08:10;;;;;;;3.97;3.50;;;;;;;;;;5032879;28;20187;-49
2021/11/13 00:10:36;;;;;;;3.67;3.38;;;;;;;;;;5018914;28;20189;-49
2021/11/13 00:13:05;;;;;;;4.15;3.47;;;;;;;;;;5033560;28;20190;-50
2021/11/13 00:15:31;;;;;;;4.00;3.60;;;;;;;;;;5016969;28;20192;-50
2021/11/13 00:17:58;;;;;;;3.88;3.22;;;;;;;;;;5032719;28;20271;-50
2021/11/13 00:20:26;;;;;;;3.75;3.35;;;;;;;;;;5036842;28;20172;-49
2021/11/13 00:22:52;;;;;;;4.00;3.60;;;;;;;;;;5035961;28;20287;-50
2021/11/13 00:25:18;;;;;;;3.70;3.22;;;;;;;;;;5035726;28;20191;-50
2021/11/13 00:27:45;;;;;;;4.15;3.50;;;;;;;;;;5036399;28;20191;-49
2021/11/13 00:30:11;;;;;;;4.15;3.75;;;;;;;;;;5036656;28;20221;-50
2021/11/13 00:32:38;;;;;;;4.13;3.38;;;;;;;;;;5025681;28;20196;-49
2021/11/13 00:35:04;;;;;;;4.10;3.70;;;;;;;;;;5031801;28;20313;-49
2021/11/13 00:37:30;;;;;;;3.78;3.30;;;;;;;;;;5035799;28;20230;-50
2021/11/13 00:39:56;;;;;;;3.83;3.45;;;;;;;;;;5035837;28;20218;-50
2021/11/13 00:42:22;;;;;;;3.83;3.53;;;;;;;;;;5036469;28;20346;-50
2021/11/13 00:44:49;;;;;;;3.80;3.47;;;;;;;;;;5034907;28;20267;-49
2021/11/13 00:47:15;;;;;;;3.65;3.15;;;;;;;;;;5036051;28;20190;-50
2021/11/13 00:49:41;;;;;;;3.60;3.30;;;;;;;;;;5035858;28;20176;-50
2021/11/13 00:52:07;;;;;;;3.40;3.10;;;;;;;;;;5030112;28;20291;-50
2021/11/13 00:54:34;;;;;;;4.22;3.40;;;;;;;;;;5034558;28;20188;-50
2021/11/13 00:57:00;;;;;;;4.45;3.50;;;;;;;;;;5035959;28;20474;-49
2021/11/13 00:59:26;;;;;;;3.85;3.50;;;;;;;;;;5035539;28;20211;-49
2021/11/13 01:01:52;;;;;;;3.30;3.00;;;;;;;;;;5035303;28;20207;-50
2021/11/13 01:04:19;;;;;;;3.38;3.08;;;;;;;;;;5035784;28;20198;-50
2021/11/13 01:06:45;;;;;;;4.47;3.33;;;;;;;;;;5035084;28;20180;-50
2021/11/13 01:09:11;;;;;;;3.58;3.28;;;;;;;;;;5035409;28;20450;-50
2021/11/13 01:11:37;;;;;;;3.38;3.08;;;;;;;;;;5035215;28;20176;-49
2021/11/13 01:14:03;;;;;;;3.40;3.10;;;;;;;;;;5035054;28;20194;-50
2021/11/13 01:16:29;;;;;;;4.07;3.63;;;;;;;;;;5035893;28;20195;-50
2021/11/13 01:18:56;;;;;;;3.97;3.25;;;;;;;;;;5035634;28;20869;-50
2021/11/13 01:21:22;;;;;;;4.40;3.63;;;;;;;;;;5035249;28;20223;-50
2021/11/13 01:23:48;;;;;;;3.45;3.15;;;;;;;;;;5034621;28;20192;-50
2021/11/13 01:26:15;;;;;;;3.50;3.20;;;;;;;;;;5034911;28;20251;-49
2021/11/13 01:28:41;;;;;;;3.15;2.90;;;;;;;;;;5035401;28;20627;-48
2021/11/13 01:31:07;;;;;;;3.60;3.22;;;;;;;;;;5035488;28;20176;-50
2021/11/13 01:33:37;;;;;;;3.70;3.30;;;;;;;;;;5035070;28;20183;-50
2021/11/13 01:36:03;;;;;;;3.53;3.22;;;;;;;;;;5031829;28;20198;-49
2021/11/13 01:38:30;;;;;;;3.50;3.20;;;;;;;;;;5035584;28;20208;-50
2021/11/13 01:40:56;;;;;;;3.17;2.90;;;;;;;;;;5034982;28;20306;-50
2021/11/13 01:43:22;;;;;;;3.35;3.05;;;;;;;;;;5034689;28;20246;-49
2021/11/13 01:45:48;;;;;;;3.40;2.90;;;;;;;;;;5034521;28;20565;-48
2021/11/13 01:48:14;;;;;;;3.35;3.00;;;;;;;;;;5033860;28;20180;-50
2021/11/13 01:50:41;;;;;;;3.70;3.22;;;;;;;;;;5027054;28;20176;-49
2021/11/13 01:53:08;;;;;;;3.63;3.33;;;;;;;;;;5034746;28;20190;-50
2021/11/13 01:55:36;;;;;;;3.50;3.15;;;;;;;;;;5034778;28;20175;-50
2021/11/13 01:58:03;;;;;;;4.25;3.30;;;;;;;;;;5034432;28;20195;-49
2021/11/13 02:00:31;;;;;;;4.38;3.40;;;;;;;;;;5034711;28;20175;-49
2021/11/13 02:02:58;;;;;;;4.63;3.20;;;;;;;;;;5033601;28;20244;-49
2021/11/13 02:05:24;;;;;;;4.20;3.60;;;;;;;;;;5034015;28;20242;-49
2021/11/13 02:07:50;;;;;;;3.15;2.80;;;;;;;;;;5034709;28;20175;-49
2021/11/13 02:10:17;;;;;;;3.67;3.35;;;;;;;;;;5033622;28;20248;-49
2021/11/13 02:12:43;;;;;;;3.55;3.20;;;;;;;;;;5034829;28;20192;-50
2021/11/13 02:15:10;;;;;;;3.30;2.78;;;;;;;;;;5034177;28;20184;-50
2021/11/13 02:17:36;;;;;;;3.20;2.90;;;;;;;;;;5026785;28;20192;-50
2021/11/13 02:20:15;;;;;;;3.13;2.88;;;;;;;;;;5017565;28;20180;-49
2021/11/13 02:22:41;;;;;;;3.50;3.08;;;;;;;;;;5033926;28;20206;-50
2021/11/13 02:25:07;;;;;;;3.40;3.10;;;;;;;;;;5034327;28;20179;-50
2021/11/13 02:27:33;;;;;;;3.17;2.88;;;;;;;;;;5034457;28;20188;-50
2021/11/13 02:29:59;;;;;;;3.33;3.03;;;;;;;;;;5034652;28;20176;-50
2021/11/13 02:32:25;;;;;;;3.47;2.90;;;;;;;;;;5033519;28;20321;-48
2021/11/13 02:34:51;;;;;;;3.53;2.90;;;;;;;;;;5033646;28;20194;-50
2021/11/13 02:37:17;;;;;;;3.20;2.90;;;;;;;;;;5048519;28;20179;-50
2021/11/13 02:39:43;;;;;;;3.55;3.25;;;;;;;;;;5054449;28;20179;-49
2021/11/13 02:42:09;;;;;;;2.90;2.60;;;;;;;;;;5042546;28;20227;-50
2021/11/13 02:44:36;;;;;;;3.50;3.20;;;;;;;;;;5033538;28;20188;-48
2021/11/13 02:47:03;;;;;;;3.03;2.72;;;;;;;;;;5033667;28;20930;-50
2021/11/13 02:49:29;;;;;;;3.25;2.95;;;;;;;;;;5034199;28;20168;-49
2021/11/13 02:51:55;;;;;;;3.20;2.90;;;;;;;;;;5033428;28;20188;-49
2021/11/13 02:54:21;;;;;;;3.42;3.13;;;;;;;;;;5033942;28;20488;-49
2021/11/13 02:56:47;;;;;;;3.30;3.00;;;;;;;;;;5033747;28;20222;-50
2021/11/13 02:59:13;;;;;;;3.40;3.03;;;;;;;;;;5032742;28;20187;-49
2021/11/13 03:01:39;;;;;;;5.05;2.95;;;;;;;;;;5032605;28;20212;-50
2021/11/13 03:04:05;;;;;;;3.17;2.88;;;;;;;;;;5033253;28;20602;-50
2021/11/13 03:06:32;;;;;;;3.00;2.80;;;;;;;;;;5032095;28;20176;-50
2021/11/13 03:08:58;;;;;;;3.25;2.92;;;;;;;;;;5034067;28;20168;-50
2021/11/13 03:11:24;;;;;;;3.00;2.80;;;;;;;;;;5033241;28;20180;-49
2021/11/13 03:13:51;;;;;;;3.20;2.90;;;;;;;;;;5032914;28;20203;-49
2021/11/13 03:16:17;;;;;;;2.97;2.75;;;;;;;;;;5033483;28;20178;-49
2021/11/13 03:18:43;;;;;;;3.35;2.90;;;;;;;;;;5033728;28;20175;-49
2021/11/13 03:21:09;;;;;;;3.05;2.72;;;;;;;;;;5033065;28;20314;-50
2021/11/13 03:23:37;;;;;;;3.30;3.00;;;;;;;;;;5033315;28;20254;-50
2021/11/13 03:26:07;;;;;;;4.30;2.80;;;;;;;;;;5032844;28;20200;-50
2021/11/13 03:28:38;;;;;;;2.50;2.30;;;;;;;;;;5033364;28;20183;-49
2021/11/13 03:31:04;;;;;;;2.90;2.60;;;;;;;;;;5032209;28;20175;-50
2021/11/13 03:33:31;;;;;;;3.38;3.08;;;;;;;;;;5032870;28;20183;-51
2021/11/13 03:35:57;;;;;;;3.20;2.90;;;;;;;;;;5033271;28;20254;-50
2021/11/13 03:38:24;;;;;;;3.03;2.72;;;;;;;;;;5033614;28;20516;-50
2021/11/13 03:40:50;;;;;;;2.58;2.38;;;;;;;;;;5033356;28;20199;-49
2021/11/13 03:43:16;;;;;;;2.85;2.60;;;;;;;;;;5032170;28;20250;-50
2021/11/13 03:45:44;;;;;;;2.90;2.70;;;;;;;;;;5030363;28;20503;-49
2021/11/13 03:48:10;;;;;;;2.90;2.67;;;;;;;;;;5034600;28;20180;-48
2021/11/13 03:50:36;;;;;;;2.58;2.38;;;;;;;;;;5037493;28;20552;-48
2021/11/13 03:53:02;;;;;;;3.03;2.80;;;;;;;;;;5036457;28;20183;-48
2021/11/13 03:55:28;;;;;;;2.80;2.60;;;;;;;;;;5037328;28;20175;-49
2021/11/13 03:57:55;;;;;;;2.90;2.70;;;;;;;;;;5036265;28;20184;-49
2021/11/13 04:00:22;;;;;;;2.92;2.72;;;;;;;;;;5036551;28;20184;-49
2021/11/13 04:02:49;;;;;;;3.13;2.83;;;;;;;;;;5036497;28;20207;-49
2021/11/13 04:05:15;;;;;;;2.60;2.40;;;;;;;;;;5037300;28;20168;-50
2021/11/13 04:07:42;;;;;;;3.00;2.72;;;;;;;;;;5036997;28;20180;-49
2021/11/13 04:10:08;;;;;;;3.28;2.97;;;;;;;;;;5037067;28;20188;-50
2021/11/13 04:12:35;;;;;;;3.05;2.75;;;;;;;;;;5035903;28;20715;-49
2021/11/13 04:15:02;;;;;;;2.85;2.40;;;;;;;;;;5036108;28;20191;-50
2021/11/13 04:17:28;;;;;;;2.47;2.28;;;;;;;;;;5037282;28;20454;-49
2021/11/13 04:19:54;;;;;;;2.70;2.50;;;;;;;;;;5037063;28;20187;-50
2021/11/13 04:22:20;;;;;;;2.75;2.55;;;;;;;;;;5036303;28;20208;-48
2021/11/13 04:24:47;;;;;;;3.05;2.75;;;;;;;;;;5036108;28;20226;-49
2021/11/13 04:27:15;;;;;;;2.60;2.40;;;;;;;;;;5030027;28;20521;-49
2021/11/13 04:29:41;;;;;;;3.25;2.95;;;;;;;;;;5025451;28;20172;-49
2021/11/13 04:32:07;;;;;;;2.70;2.50;;;;;;;;;;5035220;28;20231;-50
2021/11/13 04:34:44;;;;;;;2.65;2.45;;;;;;;;;;5035421;28;20195;-49
2021/11/13 04:37:18;;;;;;;2.70;2.50;;;;;;;;;;5036254;28;20187;-48
2021/11/13 04:39:48;;;;;;;2.80;2.58;;;;;;;;;;5035704;28;20183;-50
2021/11/13 04:42:15;;;;;;;3.25;2.75;;;;;;;;;;5035150;28;20641;-50
2021/11/13 04:44:41;;;;;;;2.50;2.30;;;;;;;;;;5032444;28;20176;-50
2021/11/13 04:47:08;;;;;;;4.13;2.75;;;;;;;;;;5035755;28;20188;-49
2021/11/13 04:49:34;;;;;;;2.90;2.55;;;;;;;;;;5036307;28;20529;-50
2021/11/13 04:52:02;;;;;;;3.13;2.83;;;;;;;;;;5036126;28;20175;-49
2021/11/13 04:54:28;;;;;;;2.63;2.42;;;;;;;;;;5025337;28;20187;-50
2021/11/13 04:56:54;;;;;;;3.10;2.80;;;;;;;;;;5031226;28;20183;-50
2021/11/13 04:59:21;;;;;;;2.88;2.67;;;;;;;;;;5034932;28;20172;-49
2021/11/13 05:01:47;;;;;;;2.45;2.25;;;;;;;;;;5034267;28;20211;-49
2021/11/13 05:04:13;;;;;;;2.80;2.60;;;;;;;;;;5035001;28;20271;-49
2021/11/13 05:06:39;;;;;;;2.60;2.40;;;;;;;;;;5035779;28;20650;-49
2021/11/13 05:09:05;;;;;;;3.78;2.60;;;;;;;;;;5035313;28;20246;-49
2021/11/13 05:11:31;;;;;;;3.20;2.55;;;;;;;;;;5034943;28;20457;-50
2021/11/13 05:13:57;;;;;;;3.00;2.70;;;;;;;;;;5035037;28;20183;-49
2021/11/13 05:16:23;;;;;;;2.58;2.38;;;;;;;;;;5035186;28;20188;-50
2021/11/13 05:18:49;;;;;;;5.05;2.45;;;;;;;;;;5035984;28;20203;-50
2021/11/13 05:21:15;;;;;;;2.80;2.60;;;;;;;;;;5035480;28;20226;-50
2021/11/13 05:23:42;;;;;;;2.92;2.45;;;;;;;;;;5034031;28;20258;-50
2021/11/13 05:26:08;;;;;;;4.45;2.75;;;;;;;;;;5034994;28;20179;-50
2021/11/13 05:28:34;;;;;;;2.58;2.22;;;;;;;;;;5035688;28;20210;-49
2021/11/13 05:31:00;;;;;;;3.05;2.53;;;;;;;;;;5035262;28;20556;-49
2021/11/13 05:33:27;;;;;;;3.03;2.45;;;;;;;;;;5035077;28;20751;-49
2021/11/13 05:35:56;;;;;;;3.13;2.83;;;;;;;;;;5035046;28;20175;-49
2021/11/13 05:38:22;;;;;;;2.90;2.42;;;;;;;;;;5015552;28;20215;-50
2021/11/13 05:40:48;;;;;;;3.17;2.60;;;;;;;;;;5017569;28;20196;-50
2021/11/13 05:43:14;;;;;;;2.50;2.30;;;;;;;;;;5034588;28;20194;-50
2021/11/13 05:45:42;;;;;;;4.88;2.75;;;;;;;;;;5035056;28;20239;-50
2021/11/13 05:48:08;;;;;;;2.65;2.35;;;;;;;;;;5030542;28;20610;-50
2021/11/13 05:50:34;;;;;;;3.80;2.63;;;;;;;;;;5037832;28;20215;-49
2021/11/13 05:53:00;;;;;;;3.30;2.63;;;;;;;;;;5034073;28;20172;-50
2021/11/13 05:55:27;;;;;;;3.60;2.90;;;;;;;;;;5035309;28;20191;-49
2021/11/13 05:57:54;;;;;;;3.40;2.67;;;;;;;;;;5050704;28;20227;-50
2021/11/13 06:00:21;;;;;;;4.75;3.10;;;;;;;;;;5036075;28;20187;-49
2021/11/13 06:02:48;;;;;;;4.10;2.90;;;;;;;;;;5034409;28;20211;-50
2021/11/13 06:05:14;;;;;;;3.75;2.55;;;;;;;;;;5034223;28;20176;-50
2021/11/13 06:07:40;;;;;;;2.90;2.58;;;;;;;;;;5034331;28;20180;-49
2021/11/13 06:10:07;;;;;;;3.53;2.80;;;;;;;;;;5034597;28;20179;-51
2021/11/13 06:12:33;;;;;;;4.22;2.53;;;;;;;;;;5034791;28;20201;-50
2021/11/13 06:14:59;;;;;;;3.28;2.70;;;;;;;;;;5033937;28;20183;-50
2021/11/13 06:17:27;;;;;;;4.40;2.85;;;;;;;;;;5034976;28;20272;-50
2021/11/13 06:19:53;;;;;;;3.28;2.33;;;;;;;;;;5028172;28;20279;-50
2021/11/13 06:22:19;;;;;;;4.13;2.70;;;;;;;;;;5030404;28;20307;-50
2021/11/13 06:24:45;;;;;;;3.35;2.58;;;;;;;;;;5034493;28;20187;-49
2021/11/13 06:27:11;;;;;;;3.92;2.78;;;;;;;;;;5034609;28;20478;-50
2021/11/13 06:29:37;;;;;;;3.47;2.65;;;;;;;;;;5034655;28;20164;-49
2021/11/13 06:32:03;;;;;;;4.05;2.63;;;;;;;;;;5034190;28;20184;-49
2021/11/13 06:34:29;;;;;;;4.35;2.47;;;;;;;;;;5018131;28;20212;-50
2021/11/13 06:36:55;;;;;;;3.28;2.72;;;;;;;;;;5022816;28;20203;-49
2021/11/13 06:39:21;;;;;;;3.88;2.80;;;;;;;;;;5034197;28;20482;-50
2021/11/13 06:41:47;;;;;;;2.72;2.40;;;;;;;;;;5034095;28;20217;-49
2021/11/13 06:44:13;;;;;;;3.58;2.50;;;;;;;;;;5034033;28;20250;-50
2021/11/13 06:46:39;;;;;;;3.40;3.03;;;;;;;;;;5034116;28;20274;-49
2021/11/13 06:49:05;;;;;;;3.65;2.70;;;;;;;;;;5033777;28;20180;-49
2021/11/13 06:51:31;;;;;;;4.45;3.00;;;;;;;;;;5033325;28;20533;-50
2021/11/13 06:53:59;;;;;;;2.92;2.35;;;;;;;;;;5033497;28;20223;-49
2021/11/13 06:56:25;;;;;;;3.38;2.50;;;;;;;;;;5033995;28;20180;-49
2021/11/13 06:58:51;;;;;;;3.80;2.30;;;;;;;;;;5034325;28;20187;-49
2021/11/13 07:01:17;;;;;;;2.97;2.47;;;;;;;;;;5030391;28;20486;-50
2021/11/13 07:03:43;;;;;;;2.97;2.22;;;;;;;;;;5017691;28;20188;-48
2021/11/13 07:06:09;;;;;;;6.95;3.20;;;;;;;;;;5033716;28;20552;-50
2021/11/13 07:08:36;;;;;;;9.82;4.03;;;;;;;;;;5034120;28;20503;-49
2021/11/13 07:11:02;;;;;;;6.30;3.65;;;;;;;;;;5033454;28;20187;-50
2021/11/13 07:13:28;;;;;;;8.48;3.28;;;;;;;;;;5033120;28;20455;-49
2021/11/13 07:15:54;;;;;;;8.20;3.40;;;;;;;;;;5033031;28;20262;-50
2021/11/13 07:18:20;;;;;;;6.25;3.22;;;;;;;;;;5033743;28;20646;-50
2021/11/13 07:20:51;;;;;;;7.03;3.20;;;;;;;;;;5033455;28;20270;-50
2021/11/13 07:23:17;;;;;;;5.53;3.47;;;;;;;;;;5032553;28;20179;-48
2021/11/13 07:25:44;;;;;;;10.30;3.40;;;;;;;;;;5033325;28;20187;-50
2021/11/13 07:28:14;;;;;;;6.90;3.38;;;;;;;;;;5033089;28;20244;-49
2021/11/13 07:30:42;;;;;;;8.00;3.55;;;;;;;;;;5033012;28;20454;-49
2021/11/13 07:33:09;;;;;;;7.43;3.05;;;;;;;;;;5032790;28;20182;-49
2021/11/13 07:35:40;;;;;;;5.80;3.40;;;;;;;;;;5033472;28;20660;-50
2021/11/13 07:38:06;;;;;;;6.00;3.20;;;;;;;;;;5033128;28;20191;-50
2021/11/13 07:40:32;;;;;;;7.60;2.80;;;;;;;;;;5033318;28;20174;-50
2021/11/13 07:43:00;;;;;;;5.10;2.97;;;;;;;;;;5033009;28;20221;-49
2021/11/13 07:45:27;;;;;;;7.03;2.70;;;;;;;;;;5025597;28;20172;-50
2021/11/13 07:47:53;;;;;;;5.15;2.50;;;;;;;;;;5031983;28;20188;-49
2021/11/13 07:50:19;;;;;;;7.63;2.97;;;;;;;;;;5033640;28;20183;-50
2021/11/13 07:52:46;;;;;;;5.20;2.90;;;;;;;;;;5033093;28;20209;-50
2021/11/13 07:55:13;;;;;;;6.35;2.70;;;;;;;;;;5032812;28;20197;-49
2021/11/13 07:57:39;;;;;;;8.15;2.85;;;;;;;;;;5032966;28;20258;-50
2021/11/13 08:00:07;;;;;;;6.35;2.60;;;;;;;;;;5013862;28;20267;-50
2021/11/13 08:02:34;;;;;;;4.15;2.65;;;;;;;;;;5032164;28;20578;-50
2021/11/13 08:05:00;;;;;;;5.78;2.70;;;;;;;;;;5032918;28;20520;-50
2021/11/13 08:07:26;;;;;;;6.20;2.50;;;;;;;;;;5033406;28;20180;-50
2021/11/13 08:09:52;;;;;;;4.05;2.40;;;;;;;;;;5033051;28;20496;-50
2021/11/13 08:12:19;;;;;;;7.38;2.40;;;;;;;;;;5032350;28;20207;-48
2021/11/13 08:14:45;;;;;;;4.47;2.17;;;;;;;;;;5032193;28;20184;-49
2021/11/13 08:17:11;;;;;;;4.90;2.10;;;;;;;;;;5033112;28;20234;-50
2021/11/13 08:19:37;;;;;;;4.25;2.42;;;;;;;;;;5033238;28;20172;-50
2021/11/13 08:22:03;;;;;;;5.15;2.30;;;;;;;;;;5032849;28;20215;-50
2021/11/13 08:24:29;;;;;;;4.13;2.53;;;;;;;;;;5032754;28;20571;-49
2021/11/13 08:26:55;;;;;;;3.67;2.28;;;;;;;;;;5032103;28;20164;-49
2021/11/13 08:29:21;;;;;;;3.13;2.22;;;;;;;;;;5032908;28;20186;-50
2021/11/13 08:31:47;;;;;;;4.32;2.25;;;;;;;;;;5032217;28;20446;-49
2021/11/13 08:34:13;;;;;;;4.00;2.25;;;;;;;;;;5034098;28;20201;-49
2021/11/13 08:36:39;;;;;;;2.55;2.10;;;;;;;;;;5036325;28;20226;-49
2021/11/13 08:39:05;;;;;;;4.78;2.40;;;;;;;;;;5036671;28;20199;-49
2021/11/13 08:41:31;;;;;;;4.13;2.55;;;;;;;;;;5031080;28;20211;-50
2021/11/13 08:43:57;;;;;;;3.03;2.25;;;;;;;;;;5035511;28;20417;-50
2021/11/13 08:46:23;;;;;;;2.85;2.30;;;;;;;;;;5036133;28;20588;-50
2021/11/13 08:48:49;;;;;;;2.38;2.00;;;;;;;;;;5036246;28;20180;-50
2021/11/13 08:51:16;;;;;;;3.17;2.17;;;;;;;;;;5036051;28;20582;-49
2021/11/13 08:53:43;;;;;;;2.65;1.90;;;;;;;;;;5035544;28;20176;-50
2021/11/13 08:56:09;;;;;;;3.13;2.30;;;;;;;;;;5035940;28;20221;-49
2021/11/13 08:58:35;;;;;;;2.63;2.10;;;;;;;;;;5033724;28;20191;-48
2021/11/13 09:01:04;;;;;;;3.47;2.30;;;;;;;;;;5036028;28;20486;-49
2021/11/13 09:03:37;;;;;;;3.40;2.00;;;;;;;;;;5035180;28;20184;-50
2021/11/13 09:06:05;;;;;;;2.60;2.00;;;;;;;;;;5035867;28;20164;-49
2021/11/13 09:08:31;;;;;;;2.53;2.08;;;;;;;;;;5036124;28;20191;-50
2021/11/13 09:10:57;;;;;;;3.05;2.22;;;;;;;;;;5035518;28;20171;-50
2021/11/13 09:13:25;;;;;;;3.17;2.10;;;;;;;;;;5033174;28;20237;-49
2021/11/13 09:15:54;;;;;;;2.75;1.48;;;;;;;;;;5043949;28;20194;-50
2021/11/13 09:18:20;;;;;;;4.07;1.77;;;;;;;;;;5056047;28;20163;-49
2021/11/13 09:20:46;;;;;;;2.88;1.92;;;;;;;;;;5045112;28;20180;-50
2021/11/13 09:23:13;;;;;;;3.38;1.98;;;;;;;;;;5035183;28;20191;-49
2021/11/13 09:25:40;;;;;;;3.55;2.40;;;;;;;;;;5035349;28;20581;-50
2021/11/13 09:28:06;;;;;;;3.28;2.20;;;;;;;;;;5035099;28;20200;-50
2021/11/13 09:30:35;;;;;;;2.47;2.10;;;;;;;;;;5034995;28;20191;-49
2021/11/13 09:33:01;;;;;;;2.08;1.85;;;;;;;;;;5035200;28;20172;-49
2021/11/13 09:35:28;;;;;;;2.10;1.90;;;;;;;;;;5035480;28;20184;-50
2021/11/13 09:37:55;;;;;;;3.00;2.42;;;;;;;;;;5035215;28;20567;-51
2021/11/13 09:40:23;;;;;;;2.58;1.85;;;;;;;;;;5035245;28;20195;-49
2021/11/13 09:42:50;;;;;;;3.20;2.00;;;;;;;;;;5034828;28;20261;-49
2021/11/13 09:45:16;;;;;;;2.20;1.98;;;;;;;;;;5034908;28;20160;-49
2021/11/13 09:47:47;;;;;;;2.90;2.10;;;;;;;;;;5032873;28;20188;-50
2021/11/13 09:50:13;;;;;;;2.08;1.88;;;;;;;;;;5033416;28;20187;-50
2021/11/13 09:52:40;;;;;;;2.20;2.00;;;;;;;;;;5034764;28;20190;-49
2021/11/13 09:55:09;;;;;;;2.08;1.73;;;;;;;;;;5034872;28;20168;-49
2021/11/13 09:57:37;;;;;;;2.42;2.00;;;;;;;;;;5034882;28;20198;-50
2021/11/13 10:00:05;;;;;;;2.08;1.80;;;;;;;;;;5035155;28;20803;-49
2021/11/13 10:02:31;;;;;;;2.65;1.85;;;;;;;;;;5034611;28;20303;-48
2021/11/13 10:04:57;;;;;;;2.03;1.83;;;;;;;;;;5029200;28;20263;-50
2021/11/13 10:07:23;;;;;;;1.95;1.80;;;;;;;;;;5035145;28;20233;-50
2021/11/13 10:09:50;;;;;;;3.88;2.00;;;;;;;;;;5035083;28;20182;-49
2021/11/13 10:12:16;;;;;;;3.28;2.05;;;;;;;;;;5034439;28;20282;-50
2021/11/13 10:14:43;;;;;;;2.55;2.17;;;;;;;;;;5033873;28;20187;-50
2021/11/13 10:17:22;;;;;;;2.08;1.88;;;;;;;;;;5034782;28;20176;-49
2021/11/13 10:19:48;;;;;;;1.70;1.60;;;;;;;;;;5033778;28;20443;-48
2021/11/13 10:22:15;;;;;;;2.22;1.95;;;;;;;;;;5025712;28;20211;-49
2021/11/13 10:24:53;;;;;;;1.80;1.70;;;;;;;;;;5033542;28;20266;-50
2021/11/13 10:27:19;;;;;;;2.08;1.70;;;;;;;;;;5032836;28;20198;-50
2021/11/13 10:29:47;;;;;;;1.90;1.70;;;;;;;;;;5033636;28;20208;-50
2021/11/13 10:32:19;;;;;;;2.30;1.90;;;;;;;;;;5033105;28;20207;-50
2021/11/13 10:34:47;;;;;;;2.13;1.90;;;;;;;;;;5033378;28;20183;-50
2021/11/13 10:37:21;;;;;;;2.25;1.83;;;;;;;;;;5033578;28;20184;-50
2021/11/13 10:39:48;;;;;;;3.20;1.92;;;;;;;;;;5034078;28;20578;-50
2021/11/13 10:42:18;;;;;;;3.72;2.00;;;;;;;;;;5034152;28;20613;-49
2021/11/13 10:44:48;;;;;;;2.25;1.77;;;;;;;;;;5033323;28;20291;-50
2021/11/13 10:47:15;;;;;;;2.03;1.80;;;;;;;;;;5033886;28;20579;-50
2021/11/13 10:49:41;;;;;;;2.35;1.88;;;;;;;;;;5034082;28;20187;-50
2021/11/13 10:52:08;;;;;;;2.40;1.90;;;;;;;;;;5033777;28;20551;-49
2021/11/13 10:54:34;;;;;;;1.60;1.50;;;;;;;;;;5032988;28;20183;-50
2021/11/13 10:57:02;;;;;;;2.38;1.90;;;;;;;;;;5033304;28;20274;-48
2021/11/13 10:59:30;;;;;;;1.73;1.63;;;;;;;;;;5033837;28;20176;-50
2021/11/13 11:02:01;;;;;;;1.75;1.65;;;;;;;;;;5032781;28;20207;-50
2021/11/13 11:04:31;;;;;;;1.92;1.63;;;;;;;;;;5033057;28;20466;-50
2021/11/13 11:07:06;;;;;;;1.70;1.60;;;;;;;;;;5034301;28;20172;-50
2021/11/13 11:09:42;;;;;;;2.03;1.77;;;;;;;;;;5033297;28;20262;-49
2021/11/13 11:12:10;;;;;;;2.38;1.70;;;;;;;;;;5033734;28;20187;-50
2021/11/13 11:14:38;;;;;;;2.00;1.83;;;;;;;;;;5033137;28;20182;-50
2021/11/13 11:17:06;;;;;;;1.73;1.63;;;;;;;;;;5033651;28;20172;-49
2021/11/13 11:19:33;;;;;;;1.92;1.75;;;;;;;;;;5034074;28;20186;-50
2021/11/13 11:22:09;;;;;;;2.28;1.63;;;;;;;;;;5033928;28;20203;-50
2021/11/13 11:24:40;;;;;;;1.65;1.38;;;;;;;;;;5033291;28;20179;-49
2021/11/13 11:27:08;;;;;;;1.50;1.40;;;;;;;;;;5029247;28;20203;-50
2021/11/13 11:29:36;;;;;;;1.90;1.73;;;;;;;;;;5033742;28;20179;-50
2021/11/13 11:32:04;;;;;;;1.90;1.75;;;;;;;;;;5033379;28;20259;-50
2021/11/13 11:34:32;;;;;;;2.00;1.80;;;;;;;;;;5033236;28;20230;-49
2021/11/13 11:36:59;;;;;;;1.70;1.50;;;;;;;;;;5033321;28;20195;-50
2021/11/13 11:39:26;;;;;;;2.00;1.77;;;;;;;;;;5033906;28;20175;-49
2021/11/13 11:41:52;;;;;;;1.70;1.60;;;;;;;;;;5033613;28;20478;-50
2021/11/13 11:44:19;;;;;;;1.70;1.60;;;;;;;;;;5031416;28;20275;-49
2021/11/13 11:46:46;;;;;;;1.70;1.58;;;;;;;;;;5031392;28;20559;-50
2021/11/13 11:49:12;;;;;;;1.80;1.52;;;;;;;;;;5033226;28;20219;-50
2021/11/13 11:51:39;;;;;;;1.63;1.50;;;;;;;;;;5033350;28;20194;-50
2021/11/13 11:54:05;;;;;;;1.40;1.30;;;;;;;;;;5033086;28;20183;-50
2021/11/13 11:56:32;;;;;;;1.75;1.50;;;;;;;;;;5033147;28;20179;-49
2021/11/13 11:59:00;;;;;;;4.75;1.73;;;;;;;;;;5032107;28;20540;-50
2021/11/13 12:01:28;;;;;;;1.85;1.58;;;;;;;;;;5025308;28;20590;-50
2021/11/13 12:04:12;;;;;;;2.10;1.52;;;;;;;;;;5032447;28;20176;-49
2021/11/13 12:07:04;;;;;;;3.40;1.60;;;;;;;;;;5033028;28;20172;-50
2021/11/13 12:09:30;;;;;;;1.98;1.52;;;;;;;;;;5035323;28;20198;-49
2021/11/13 12:12:17;;;;;;;5.20;1.98;;;;;;;;;;5036937;28;20188;-50
2021/11/13 12:14:44;;;;;;;4.07;1.60;;;;;;;;;;5016967;28;20188;-50
2021/11/13 12:17:29;;;;;;;4.35;1.98;;;;;;;;;;5028287;28;20175;-50
2021/11/13 12:20:04;;;;;;;2.08;1.42;;;;;;;;;;5037071;28;20486;-50
2021/11/13 12:22:38;;;;;;;5.95;2.20;;;;;;;;;;5036870;28;20283;-49
2021/11/13 12:25:23;;;;;;;4.63;1.92;;;;;;;;;;5035682;28;20217;-50
2021/11/13 12:28:08;;;;;;;3.42;1.70;;;;;;;;;;5036756;28;20199;-49
2021/11/13 12:30:54;;;;;;;7.70;2.13;;;;;;;;;;5036849;28;20602;-50
2021/11/13 12:33:29;;;;;;;9.27;1.95;;;;;;;;;;5027210;28;20564;-50
2021/11/13 12:36:01;;;;;;;5.22;1.85;;;;;;;;;;5016893;28;20251;-49
2021/11/13 12:38:36;;;;;;;7.60;1.80;;;;;;;;;;5031371;28;20176;-50
2021/11/13 12:41:15;;;;;;;11.80;2.20;;;;;;;;;;5036301;28;20408;-50
2021/11/13 12:46:42;;;;;;;3.78;1.98;;;;;;;;;;5036107;28;20191;-50
2021/11/13 12:49:18;;;;;;;4.13;2.00;;;;;;;;;;5035140;28;20514;-50
2021/11/13 12:51:44;;;;;;;3.78;2.05;;;;;;;;;;5016441;28;20455;-49
2021/11/13 12:54:26;;;;;;;2.88;1.60;;;;;;;;;;5033229;28;20226;-49
2021/11/13 12:56:57;;;;;;;3.65;1.65;;;;;;;;;;5036057;28;20214;-50
2021/11/13 12:59:25;;;;;;;3.08;1.55;;;;;;;;;;5036162;28;20508;-50
2021/11/13 13:01:56;;;;;;;3.53;1.50;;;;;;;;;;5035833;28;20203;-50
2021/11/13 13:04:23;;;;;;;3.80;1.63;;;;;;;;;;5034798;28;20511;-50
2021/11/13 13:06:49;;;;;;;2.13;1.40;;;;;;;;;;5031478;28;20180;-50
2021/11/13 13:09:15;;;;;;;4.95;2.10;;;;;;;;;;5036134;28;20168;-49
2021/11/13 13:11:57;;;;;;;2.08;1.52;;;;;;;;;;5036061;28;20610;-50
2021/11/13 13:14:27;;;;;;;3.65;1.70;;;;;;;;;;5035280;28;20175;-50
2021/11/13 13:16:54;;;;;;;1.90;1.50;;;;;;;;;;5035240;28;20183;-49
2021/11/13 13:19:26;;;;;;;4.13;1.85;;;;;;;;;;5035745;28;20198;-50
2021/11/13 13:21:52;;;;;;;4.15;1.58;;;;;;;;;;5032196;28;20579;-50
2021/11/13 13:24:19;;;;;;;2.17;1.45;;;;;;;;;;5033964;28;20175;-50
2021/11/13 13:26:46;;;;;;;3.80;1.95;;;;;;;;;;5035335;28;20184;-50
2021/11/13 13:29:12;;;;;;;2.22;1.70;;;;;;;;;;5035412;28;20180;-50
2021/11/13 13:31:38;;;;;;;2.92;1.90;;;;;;;;;;5030229;28;20190;-50
2021/11/13 13:34:04;;;;;;;3.53;1.90;;;;;;;;;;5034711;28;20606;-49
2021/11/13 13:36:31;;;;;;;2.85;1.60;;;;;;;;;;5035034;28;20195;-50
2021/11/13 13:38:57;;;;;;;2.17;1.30;;;;;;;;;;5034521;28;20184;-49
2021/11/13 13:41:24;;;;;;;2.83;1.42;;;;;;;;;;5034949;28;20249;-50
2021/11/13 13:43:53;;;;;;;2.40;1.70;;;;;;;;;;5034764;28;20175;-50
2021/11/13 13:46:20;;;;;;;4.65;2.10;;;;;;;;;;5034995;28;20203;-49
2021/11/13 13:48:49;;;;;;;5.07;1.60;;;;;;;;;;5035025;28;20176;-49
2021/11/13 13:51:22;;;;;;;3.22;1.77;;;;;;;;;;5035334;28;20745;-50
2021/11/13 13:53:53;;;;;;;2.47;1.98;;;;;;;;;;5034492;28;20192;-49
2021/11/13 13:56:29;;;;;;;1.92;1.70;;;;;;;;;;5033230;28;20179;-50
2021/11/13 13:58:56;;;;;;;2.53;1.63;;;;;;;;;;5035042;28;20194;-49
2021/11/13 14:01:22;;;;;;;3.90;1.85;;;;;;;;;;5034737;28;20237;-50
2021/11/13 14:03:49;;;;;;;2.53;1.65;;;;;;;;;;5033717;28;20195;-50
2021/11/13 14:06:15;;;;;;;1.92;1.50;;;;;;;;;;5032837;28;20252;-50
2021/11/13 14:08:47;;;;;;;4.18;1.80;;;;;;;;;;5034996;28;20180;-49
2021/11/13 14:11:14;;;;;;;1.98;1.70;;;;;;;;;;5023422;28;20172;-50
2021/11/13 14:13:40;;;;;;;2.40;1.80;;;;;;;;;;5031978;28;20187;-50
2021/11/13 14:16:08;;;;;;;3.58;2.17;;;;;;;;;;5034422;28;20179;-50
2021/11/13 14:18:35;;;;;;;2.05;1.60;;;;;;;;;;5034643;28;20186;-50
2021/11/13 14:21:01;;;;;;;5.38;1.98;;;;;;;;;;5034142;28;20282;-49
2021/11/13 14:23:39;;;;;;;6.50;2.03;;;;;;;;;;5033456;28;20255;-50
2021/11/13 14:26:26;;;;;;;2.42;2.10;;;;;;;;;;5034197;28;20179;-50
2021/11/13 14:28:55;;;;;;;2.80;1.90;;;;;;;;;;5031142;28;20269;-50
2021/11/13 14:31:21;;;;;;;2.90;2.15;;;;;;;;;;5014957;28;20244;-52
2021/11/13 14:33:52;;;;;;;4.88;2.50;;;;;;;;;;5021215;28;20314;-49
2021/11/13 14:36:29;;;;;;;2.85;2.00;;;;;;;;;;5034220;28;20214;-49
2021/11/13 14:39:05;;;;;;;2.20;1.75;;;;;;;;;;5030037;28;20286;-49
2021/11/13 14:41:32;;;;;;;5.20;2.20;;;;;;;;;;5034241;28;20217;-49
2021/11/13 14:44:15;;;;;;;2.97;1.90;;;;;;;;;;5033623;28;20179;-50
2021/11/13 14:46:50;;;;;;;4.97;2.00;;;;;;;;;;5030301;28;20656;-49
2021/11/13 14:49:16;;;;;;;2.53;1.98;;;;;;;;;;5033065;28;20295;-50